Weather at Methodist Medical Center of Illinois Heliport

Public forecast

Using degrees Fahrenheit for public forecast. Weather courtesy of forecast.io.

Closest aviation weather report (METAR) to Methodist Medical Center of Illinois Heliport

Closest report is General Wayne A. Downing Peoria International Airport, 5.0 nm (9.2 km) WSW. Retrieved 2021/01/19 09:54 UTC (38 minutes ago):

KPIA 190954Z 29003KT 10SM CLR M06/M09 A3019 RMK AO2 SLP231 T10611094

Closest aviation forecast (TAF) to Methodist Medical Center of Illinois Heliport

Closest forecast is General Wayne A. Downing Peoria International Airport, 5.0 nm (9.2 km) WSW. Retrieved 2021/01/19 06:27 UTC (4 hours ago):

TAF KPIA 190525Z 1906/2006 30006KT P6SM SKC TEMPO 1910/1914 5SM BR FM191600 25008KT P6SM BKN025 FM191800 25010KT P6SM -SN BKN012 FM200300 28012KT P6SM OVC018